Time;durP1;ratioP1;P1;durP2;ratioP2;P2;SDS_P1;SDS_P2;PMS_P1;PMS_P2;Temp;Humidity;BMP_temperature;BMP_pressure;BME280_temperature;BME280_humidity;BME280_pressure;Samples;Min_cycle;Max_cycle;Signal;HPM_P1;HPM_P2
2021/12/19 00:08:59;;;;;;;;;;;29.70;99.90;;;;;;5053481;28;20297;-75
2021/12/19 00:11:26;;;;;;;;;;;29.60;99.90;;;;;;5053606;28;19909;-75
2021/12/19 00:13:53;;;;;;;;;;;29.50;99.90;;;;;;5052555;28;19909;-74
2021/12/19 00:16:20;;;;;;;;;;;29.40;99.90;;;;;;5052069;28;20308;-74
2021/12/19 00:18:48;;;;;;;;;;;29.30;99.90;;;;;;5053307;28;19909;-74
2021/12/19 00:21:16;;;;;;;;;;;29.40;99.90;;;;;;5053213;28;19909;-74
2021/12/19 00:23:43;;;;;;;;;;;29.30;99.90;;;;;;5053493;28;19920;-76
2021/12/19 00:26:09;;;;;;;;;;;29.30;99.90;;;;;;5053047;28;19913;-74
2021/12/19 00:28:36;;;;;;;;;;;29.40;99.90;;;;;;5052510;28;19916;-74
2021/12/19 00:31:03;;;;;;;;;;;29.40;99.90;;;;;;5052980;28;20318;-74
2021/12/19 00:33:30;;;;;;;;;;;29.50;99.90;;;;;;5052824;28;19909;-72
2021/12/19 00:35:57;;;;;;;;;;;29.60;99.90;;;;;;5052615;28;19948;-72
2021/12/19 00:38:24;;;;;;;;;;;29.60;99.90;;;;;;5052932;28;19970;-73
2021/12/19 00:40:50;;;;;;;;;;;29.70;99.90;;;;;;5053006;28;20410;-74
2021/12/19 00:46:06;;;;;;;;;;;30.00;99.90;;;;;;5052866;28;20000;-74
2021/12/19 00:48:33;;;;;;;;;;;30.20;99.70;;;;;;5052867;28;20275;-73
2021/12/19 00:51:00;;;;;;;;;;;30.30;99.80;;;;;;5052874;28;19916;-74
2021/12/19 00:53:27;;;;;;;;;;;30.40;99.70;;;;;;5062865;28;19916;-74
2021/12/19 00:55:54;;;;;;;;;;;30.70;99.30;;;;;;5071646;28;19908;-75
2021/12/19 00:58:21;;;;;;;;;;;30.80;99.20;;;;;;5072790;28;20008;-74
2021/12/19 01:00:47;;;;;;;;;;;30.90;98.70;;;;;;5072774;28;20031;-76
2021/12/19 01:03:14;;;;;;;;;;;30.70;99.00;;;;;;5072628;28;19916;-74
2021/12/19 01:05:41;;;;;;;;;;;30.60;99.40;;;;;;5072667;28;19908;-73
2021/12/19 01:08:11;;;;;;;;;;;30.40;99.50;;;;;;5072286;28;19920;-73
2021/12/19 01:10:39;;;;;;;;;;;30.50;99.80;;;;;;5072444;28;19924;-73
2021/12/19 01:13:05;;;;;;;;;;;30.80;99.60;;;;;;5072494;28;20386;-74
2021/12/19 01:15:32;;;;;;;;;;;31.30;98.90;;;;;;5072560;28;20370;-74
2021/12/19 01:18:00;;;;;;;;;;;31.70;98.10;;;;;;5072214;28;19909;-75
2021/12/19 01:20:28;;;;;;;;;;;32.30;97.70;;;;;;5072476;28;19916;-74
2021/12/19 01:22:55;;;;;;;;;;;32.70;96.90;;;;;;5072313;28;19920;-73
2021/12/19 01:25:21;;;;;;;;;;;32.40;96.20;;;;;;5072414;28;20007;-76
2021/12/19 01:27:48;;;;;;;;;;;31.90;97.20;;;;;;5072103;28;19920;-75
2021/12/19 01:30:15;;;;;;;;;;;31.60;97.00;;;;;;5072476;28;20279;-74
2021/12/19 01:32:42;;;;;;;;;;;31.60;97.00;;;;;;5072247;28;19908;-74
2021/12/19 01:35:11;;;;;;;;;;;32.00;96.00;;;;;;5072371;28;19916;-73
2021/12/19 01:37:44;;;;;;;;;;;32.60;95.20;;;;;;5104873;28;19987;-74
2021/12/19 01:40:12;;;;;;;;;;;32.50;95.30;;;;;;5072559;28;19909;-74
2021/12/19 01:42:42;;;;;;;;;;;32.30;94.50;;;;;;5072308;28;19916;-73
2021/12/19 01:45:11;;;;;;;;;;;32.40;94.80;;;;;;5070504;28;20394;-73
2021/12/19 01:47:38;;;;;;;;;;;32.60;94.40;;;;;;5072319;28;20283;-75
2021/12/19 01:50:06;;;;;;;;;;;32.90;93.90;;;;;;5072048;28;19908;-73
2021/12/19 01:52:32;;;;;;;;;;;32.90;93.80;;;;;;5072236;28;19909;-74
2021/12/19 01:54:59;;;;;;;;;;;32.80;93.30;;;;;;5072191;28;19912;-73
2021/12/19 01:57:26;;;;;;;;;;;32.80;92.90;;;;;;5072293;28;19916;-73
2021/12/19 01:59:54;;;;;;;;;;;32.90;93.00;;;;;;5071953;28;19909;-73
2021/12/19 02:02:21;;;;;;;;;;;32.70;93.00;;;;;;5072235;28;19943;-73
2021/12/19 02:04:49;;;;;;;;;;;32.60;91.70;;;;;;5072147;28;20003;-73
2021/12/19 02:07:15;;;;;;;;;;;32.50;92.30;;;;;;5071835;28;19917;-73
2021/12/19 02:09:42;;;;;;;;;;;32.50;91.90;;;;;;5072990;28;19950;-76
2021/12/19 02:12:09;;;;;;;;;;;32.50;92.20;;;;;;5075793;28;20425;-74
2021/12/19 02:14:36;;;;;;;;;;;32.40;92.20;;;;;;5075982;28;19954;-73
2021/12/19 02:17:02;;;;;;;;;;;32.50;91.80;;;;;;5075786;28;19953;-73
2021/12/19 02:19:30;;;;;;;;;;;32.50;91.50;;;;;;5076006;28;19915;-74
2021/12/19 02:21:56;;;;;;;;;;;32.50;91.10;;;;;;5075740;28;20274;-74
2021/12/19 02:24:23;;;;;;;;;;;32.50;91.10;;;;;;5075720;28;20367;-75
2021/12/19 02:26:50;;;;;;;;;;;32.50;90.60;;;;;;5075669;28;19923;-75
2021/12/19 02:29:17;;;;;;;;;;;32.40;90.50;;;;;;5075691;28;19909;-73
2021/12/19 02:31:45;;;;;;;;;;;32.30;90.00;;;;;;5075627;28;19908;-75
2021/12/19 02:34:22;;;;;;;;;;;32.40;90.10;;;;;;5075463;28;19947;-72
2021/12/19 02:37:00;;;;;;;;;;;32.30;90.10;;;;;;5075717;28;19917;-75
2021/12/19 02:39:53;;;;;;;;;;;;;;;;;;;;;
2021/12/19 02:50:20;;;;;;;;;;;32.60;89.70;;;;;;5075779;28;19915;-75
2021/12/19 02:52:47;;;;;;;;;;;32.50;88.90;;;;;;5075378;28;19962;-74
2021/12/19 02:55:15;;;;;;;;;;;32.50;90.10;;;;;;5075023;28;19909;-74
2021/12/19 02:57:41;;;;;;;;;;;32.60;89.00;;;;;;5074977;28;20401;-74
2021/12/19 03:00:10;;;;;;;;;;;32.70;88.00;;;;;;5075077;28;20004;-76
2021/12/19 03:02:36;;;;;;;;;;;32.70;88.00;;;;;;5107811;28;19914;-74
2021/12/19 03:05:04;;;;;;;;;;;32.60;88.00;;;;;;5075111;28;19962;-73
2021/12/19 03:07:31;;;;;;;;;;;32.60;88.90;;;;;;5074898;28;20427;-74
2021/12/19 03:12:46;;;;;;;;;;;32.50;88.90;;;;;;5075026;28;19982;-75
2021/12/19 03:18:03;;;;;;;;;;;32.60;88.20;;;;;;5074877;28;19916;-77
2021/12/19 03:20:31;;;;;;;;;;;32.80;88.90;;;;;;5074093;28;20003;-77
2021/12/19 03:22:58;;;;;;;;;;;32.80;89.10;;;;;;5074139;28;19909;-74
2021/12/19 03:25:26;;;;;;;;;;;32.90;86.70;;;;;;5074617;28;19931;-75
2021/12/19 03:27:52;;;;;;;;;;;32.90;86.60;;;;;;5074271;28;19916;-74
2021/12/19 03:30:20;;;;;;;;;;;33.00;86.30;;;;;;5074634;28;20358;-74
2021/12/19 03:32:46;;;;;;;;;;;32.90;86.90;;;;;;5074574;28;19908;-74
2021/12/19 03:35:13;;;;;;;;;;;32.70;86.80;;;;;;5074681;28;19908;-74
2021/12/19 03:37:41;;;;;;;;;;;32.80;87.00;;;;;;5074444;28;20386;-73
2021/12/19 03:40:10;;;;;;;;;;;32.70;86.30;;;;;;5073955;28;19963;-74
2021/12/19 03:42:44;;;;;;;;;;;32.80;86.20;;;;;;5074460;28;19912;-73
2021/12/19 03:45:12;;;;;;;;;;;32.70;86.30;;;;;;5074311;28;19942;-73
2021/12/19 03:47:39;;;;;;;;;;;32.50;86.60;;;;;;5074233;28;20393;-73
2021/12/19 03:50:08;;;;;;;;;;;32.60;86.90;;;;;;5073974;28;20502;-72
2021/12/19 03:52:35;;;;;;;;;;;32.60;85.90;;;;;;5074156;28;19908;-73
2021/12/19 03:55:02;;;;;;;;;;;32.50;84.90;;;;;;5074091;28;19919;-72
2021/12/19 03:57:29;;;;;;;;;;;32.50;85.00;;;;;;5073953;28;20004;-74
2021/12/19 03:59:55;;;;;;;;;;;32.60;85.10;;;;;;5073943;28;19915;-73
2021/12/19 04:02:26;;;;;;;;;;;32.60;86.80;;;;;;5073996;28;20271;-73
2021/12/19 04:04:58;;;;;;;;;;;32.50;87.20;;;;;;5074027;28;20382;-73
2021/12/19 04:07:26;;;;;;;;;;;32.40;88.00;;;;;;5073800;28;19916;-73
2021/12/19 04:09:52;;;;;;;;;;;32.20;87.80;;;;;;5073141;28;20298;-72
2021/12/19 04:12:22;;;;;;;;;;;32.00;88.50;;;;;;5073792;28;19932;-72
2021/12/19 04:14:49;;;;;;;;;;;31.80;88.80;;;;;;5073627;28;20351;-74
2021/12/19 04:17:16;;;;;;;;;;;31.80;88.00;;;;;;5073706;28;20327;-74
2021/12/19 04:19:43;;;;;;;;;;;31.80;88.00;;;;;;5073611;28;19908;-72
2021/12/19 04:22:10;;;;;;;;;;;31.60;90.90;;;;;;5073371;28;19909;-72
2021/12/19 04:24:36;;;;;;;;;;;31.10;92.70;;;;;;5073152;28;19983;-72
2021/12/19 04:27:04;;;;;;;;;;;30.60;93.70;;;;;;5073447;28;20256;-72
2021/12/19 04:29:30;;;;;;;;;;;30.20;94.70;;;;;;5073297;28;19919;-73
2021/12/19 04:31:57;;;;;;;;;;;30.00;96.80;;;;;;5072848;28;20315;-72
2021/12/19 04:34:24;;;;;;;;;;;29.70;97.90;;;;;;5073462;28;19908;-72
2021/12/19 04:36:58;;;;;;;;;;;29.30;99.10;;;;;;5073359;28;20351;-72
2021/12/19 04:39:40;;;;;;;;;;;28.90;99.90;;;;;;5073208;28;19962;-73
2021/12/19 04:43:13;;;;;;;;;;;28.20;99.90;;;;;;5073068;28;20037;-72
2021/12/19 04:53:29;;;;;;;;;;;27.90;99.90;;;;;;5072971;28;19915;-74
2021/12/19 04:58:52;;;;;;;;;;;28.00;99.90;;;;;;5072818;28;19931;-72
2021/12/19 05:04:10;;;;;;;;;;;28.20;99.90;;;;;;5072994;28;19915;-74
2021/12/19 05:14:01;;;;;;;;;;;28.50;99.90;;;;;;5072645;28;19923;-73
2021/12/19 05:14:54;;;;;;;;;;;28.80;99.90;;;;;;5072719;28;20421;-74
2021/12/19 05:17:25;;;;;;;;;;;28.90;99.90;;;;;;5072537;28;20007;-73
2021/12/19 05:20:14;;;;;;;;;;;29.00;99.90;;;;;;5072343;28;19916;-73
2021/12/19 05:22:46;;;;;;;;;;;29.10;99.90;;;;;;5072204;28;19952;-73
2021/12/19 05:25:18;;;;;;;;;;;29.20;99.90;;;;;;5072453;28;19909;-73
2021/12/19 05:27:45;;;;;;;;;;;29.30;98.20;;;;;;5072318;28;20326;-73
2021/12/19 05:30:13;;;;;;;;;;;29.50;97.00;;;;;;5072322;28;19909;-73
2021/12/19 05:32:40;;;;;;;;;;;29.60;96.50;;;;;;5072559;28;20414;-75
2021/12/19 05:35:09;;;;;;;;;;;29.60;96.20;;;;;;5072487;28;19908;-73
2021/12/19 05:45:49;;;;;;;;;;;29.80;93.80;;;;;;5071529;28;19974;-73
2021/12/19 05:48:16;;;;;;;;;;;29.90;93.30;;;;;;5072086;28;19916;-74
2021/12/19 05:50:43;;;;;;;;;;;30.00;92.70;;;;;;5072316;28;19912;-73
2021/12/19 05:53:13;;;;;;;;;;;30.10;92.70;;;;;;5071120;28;19908;-73
2021/12/19 05:55:39;;;;;;;;;;;30.10;92.40;;;;;;5072172;28;20351;-73
2021/12/19 05:58:06;;;;;;;;;;;30.00;91.70;;;;;;5072034;28;20317;-74
2021/12/19 06:00:33;;;;;;;;;;;29.90;91.80;;;;;;5072227;28;19916;-72
2021/12/19 06:03:01;;;;;;;;;;;29.80;90.70;;;;;;5071661;28;19908;-73
2021/12/19 06:05:28;;;;;;;;;;;29.80;90.50;;;;;;5071862;28;19909;-72
2021/12/19 06:07:55;;;;;;;;;;;29.60;91.60;;;;;;5071584;28;19916;-72
2021/12/19 06:10:22;;;;;;;;;;;29.40;91.10;;;;;;5071809;28;19920;-74
2021/12/19 06:12:52;;;;;;;;;;;29.30;90.70;;;;;;5072154;28;19921;-74
2021/12/19 06:15:18;;;;;;;;;;;29.40;89.60;;;;;;5071897;28;19935;-74
2021/12/19 06:17:45;;;;;;;;;;;29.40;89.00;;;;;;5071521;28;19909;-74
2021/12/19 06:20:12;;;;;;;;;;;29.30;89.00;;;;;;5071425;28;20383;-73
2021/12/19 06:22:39;;;;;;;;;;;29.20;90.20;;;;;;5071206;28;19908;-73
2021/12/19 06:25:06;;;;;;;;;;;29.20;90.90;;;;;;5071004;28;19908;-72
2021/12/19 06:27:33;;;;;;;;;;;29.10;89.80;;;;;;5071123;28;20007;-73
2021/12/19 06:30:00;;;;;;;;;;;28.90;90.70;;;;;;5070767;28;19908;-72
2021/12/19 06:32:26;;;;;;;;;;;28.80;92.00;;;;;;5071232;28;20011;-73
2021/12/19 06:34:53;;;;;;;;;;;28.50;93.20;;;;;;5071294;28;19913;-72
2021/12/19 06:37:19;;;;;;;;;;;28.30;93.10;;;;;;5071026;28;19908;-72
2021/12/19 06:39:46;;;;;;;;;;;28.00;93.70;;;;;;5071114;28;19908;-72
2021/12/19 06:42:13;;;;;;;;;;;28.00;94.90;;;;;;5071216;28;20268;-72
2021/12/19 06:44:40;;;;;;;;;;;28.00;93.40;;;;;;5071497;28;19919;-73
2021/12/19 06:47:07;;;;;;;;;;;28.00;92.80;;;;;;5071042;28;20282;-73
2021/12/19 06:49:34;;;;;;;;;;;28.00;92.90;;;;;;5071252;28;19920;-73
2021/12/19 06:52:00;;;;;;;;;;;28.10;92.50;;;;;;5070985;28;19908;-72
2021/12/19 06:54:27;;;;;;;;;;;28.10;92.60;;;;;;5070913;28;19909;-72
2021/12/19 06:56:57;;;;;;;;;;;28.00;95.50;;;;;;5073889;28;19993;-72
2021/12/19 06:59:23;;;;;;;;;;;27.70;95.60;;;;;;5074660;28;19908;-73
2021/12/19 07:01:50;;;;;;;;;;;27.40;96.00;;;;;;5074502;28;19950;-73
2021/12/19 07:04:16;;;;;;;;;;;27.20;96.00;;;;;;5074524;28;19908;-72
2021/12/19 07:06:43;;;;;;;;;;;27.20;94.00;;;;;;5074448;28;19924;-74
2021/12/19 07:09:10;;;;;;;;;;;27.30;94.40;;;;;;5073936;28;19920;-73
2021/12/19 07:11:36;;;;;;;;;;;27.50;94.40;;;;;;5074180;28;19915;-74
2021/12/19 07:14:03;;;;;;;;;;;27.70;93.00;;;;;;5074036;28;20002;-74
2021/12/19 07:16:30;;;;;;;;;;;27.70;93.50;;;;;;5074185;28;19909;-73
2021/12/19 07:18:56;;;;;;;;;;;27.80;93.90;;;;;;5074206;28;19995;-73
2021/12/19 07:21:24;;;;;;;;;;;27.80;92.90;;;;;;5074262;28;19954;-73
2021/12/19 07:23:50;;;;;;;;;;;27.80;93.40;;;;;;5073822;28;19951;-73
2021/12/19 07:26:17;;;;;;;;;;;27.80;93.10;;;;;;5073758;28;19970;-74
2021/12/19 07:28:46;;;;;;;;;;;27.90;93.40;;;;;;5074092;28;20374;-74
2021/12/19 07:31:12;;;;;;;;;;;27.90;93.10;;;;;;5074161;28;19913;-74
2021/12/19 07:33:39;;;;;;;;;;;27.90;93.60;;;;;;5074512;28;19951;-74
2021/12/19 07:36:06;;;;;;;;;;;27.90;92.90;;;;;;5074266;28;19919;-73
2021/12/19 07:38:39;;;;;;;;;;;27.90;93.60;;;;;;5074243;28;20508;-74
2021/12/19 07:41:06;;;;;;;;;;;27.90;93.40;;;;;;5074378;28;19920;-73
2021/12/19 07:43:33;;;;;;;;;;;27.90;93.40;;;;;;5074447;28;19951;-75
2021/12/19 07:45:59;;;;;;;;;;;27.90;93.40;;;;;;5074315;28;19908;-73
2021/12/19 07:48:26;;;;;;;;;;;27.60;96.80;;;;;;5074560;28;19920;-72
2021/12/19 07:50:54;;;;;;;;;;;26.80;99.90;;;;;;5072750;28;19947;-73
2021/12/19 07:53:20;;;;;;;;;;;26.10;99.90;;;;;;5074266;28;20328;-73
2021/12/19 07:55:47;;;;;;;;;;;25.90;99.90;;;;;;5073966;28;19915;-73
2021/12/19 07:58:14;;;;;;;;;;;25.70;99.90;;;;;;5074145;28;19975;-74
2021/12/19 08:00:40;;;;;;;;;;;25.70;99.90;;;;;;5074167;28;19947;-74
2021/12/19 08:03:07;;;;;;;;;;;25.80;99.90;;;;;;5074154;28;20358;-73
2021/12/19 08:05:34;;;;;;;;;;;25.80;99.90;;;;;;5074196;28;19935;-73
2021/12/19 08:08:01;;;;;;;;;;;25.80;99.90;;;;;;5074082;28;19940;-73
2021/12/19 08:13:05;;;;;;;;;;;26.00;99.90;;;;;;5074973;28;19962;-73
2021/12/19 08:15:32;;;;;;;;;;;25.90;99.90;;;;;;5074946;28;19909;-74
2021/12/19 08:17:59;;;;;;;;;;;26.00;99.90;;;;;;5074499;28;19938;-73
2021/12/19 08:20:27;;;;;;;;;;;26.10;99.90;;;;;;5074807;28;20003;-73
2021/12/19 08:22:56;;;;;;;;;;;26.00;98.90;;;;;;5073451;28;19977;-73
2021/12/19 08:25:24;;;;;;;;;;;26.10;98.60;;;;;;5073510;28;20411;-73
2021/12/19 08:27:51;;;;;;;;;;;26.10;98.80;;;;;;5105668;28;20424;-73
2021/12/19 08:30:18;;;;;;;;;;;26.10;99.10;;;;;;5073453;28;20256;-72
2021/12/19 08:32:45;;;;;;;;;;;26.20;98.60;;;;;;5073330;28;19909;-72
2021/12/19 08:35:12;;;;;;;;;;;26.20;98.50;;;;;;5073295;28;19908;-72
2021/12/19 08:37:38;;;;;;;;;;;26.10;99.90;;;;;;5073498;28;19957;-71
2021/12/19 08:40:06;;;;;;;;;;;25.70;99.90;;;;;;5072991;28;19908;-72
2021/12/19 08:42:34;;;;;;;;;;;25.40;99.90;;;;;;5073371;28;19908;-72
2021/12/19 08:45:01;;;;;;;;;;;25.10;99.90;;;;;;5073304;28;20389;-71
2021/12/19 08:47:28;;;;;;;;;;;25.00;99.90;;;;;;5073172;28;19923;-72
2021/12/19 08:49:55;;;;;;;;;;;25.00;99.90;;;;;;5073168;28;19916;-73
2021/12/19 08:52:21;;;;;;;;;;;25.00;99.90;;;;;;5073133;28;19991;-72
2021/12/19 08:54:48;;;;;;;;;;;25.00;99.90;;;;;;5073334;28;20394;-73
2021/12/19 08:57:15;;;;;;;;;;;25.10;99.90;;;;;;5073195;28;20434;-72
2021/12/19 08:59:43;;;;;;;;;;;25.00;99.90;;;;;;5073510;28;19913;-72
2021/12/19 09:02:10;;;;;;;;;;;24.90;99.90;;;;;;5073638;28;19909;-73
2021/12/19 09:04:37;;;;;;;;;;;24.90;99.90;;;;;;5074801;28;19912;-74
2021/12/19 09:07:04;;;;;;;;;;;24.90;99.90;;;;;;5073053;28;20363;-73
2021/12/19 09:09:30;;;;;;;;;;;24.80;99.90;;;;;;5072600;28;20279;-75
2021/12/19 09:11:57;;;;;;;;;;;24.80;99.90;;;;;;5072590;28;20363;-73
2021/12/19 09:14:24;;;;;;;;;;;24.70;99.90;;;;;;5072716;28;19908;-73
2021/12/19 09:16:51;;;;;;;;;;;24.70;99.90;;;;;;5072671;28;19908;-74
2021/12/19 09:19:17;;;;;;;;;;;24.70;99.90;;;;;;5072032;28;19916;-72
2021/12/19 09:21:44;;;;;;;;;;;24.70;99.90;;;;;;5072744;28;20358;-75
2021/12/19 09:24:11;;;;;;;;;;;24.70;99.90;;;;;;5072588;28;19989;-73
2021/12/19 09:26:38;;;;;;;;;;;24.70;99.90;;;;;;5072517;28;19916;-73
2021/12/19 09:29:05;;;;;;;;;;;24.70;99.90;;;;;;5072570;28;19913;-74
2021/12/19 09:31:32;;;;;;;;;;;24.70;99.90;;;;;;5072400;28;19908;-73
2021/12/19 09:33:59;;;;;;;;;;;24.70;99.90;;;;;;5072157;28;19935;-73
2021/12/19 09:36:25;;;;;;;;;;;24.70;99.90;;;;;;5072531;28;20373;-72
2021/12/19 09:38:52;;;;;;;;;;;24.70;99.90;;;;;;5072289;28;19954;-74
2021/12/19 09:41:28;;;;;;;;;;;24.60;99.90;;;;;;5072473;28;19940;-73
2021/12/19 09:43:58;;;;;;;;;;;24.60;99.90;;;;;;5072257;28;19915;-73
2021/12/19 09:46:28;;;;;;;;;;;24.70;99.90;;;;;;5068274;28;19908;-73
2021/12/19 09:48:55;;;;;;;;;;;24.70;99.90;;;;;;5072252;28;20274;-74
2021/12/19 09:51:21;;;;;;;;;;;24.70;99.90;;;;;;5105065;28;19913;-72
2021/12/19 09:53:48;;;;;;;;;;;24.60;99.90;;;;;;5071923;28;19915;-73
2021/12/19 09:56:15;;;;;;;;;;;24.60;99.90;;;;;;5072306;28;20354;-73
2021/12/19 09:58:42;;;;;;;;;;;24.60;99.90;;;;;;5072390;28;19912;-73
2021/12/19 10:01:10;;;;;;;;;;;24.50;99.90;;;;;;5070589;28;19963;-73
2021/12/19 10:03:37;;;;;;;;;;;24.60;99.90;;;;;;5072161;28;19931;-73
2021/12/19 10:06:20;;;;;;;;;;;24.50;99.90;;;;;;5072025;28;19908;-73
2021/12/19 10:08:49;;;;;;;;;;;24.50;99.90;;;;;;5071751;28;19967;-72
2021/12/19 10:11:33;;;;;;;;;;;24.60;99.90;;;;;;5072204;28;19909;-73
2021/12/19 10:13:59;;;;;;;;;;;24.50;99.90;;;;;;5071779;28;20252;-73
2021/12/19 10:16:29;;;;;;;;;;;24.60;99.90;;;;;;5071700;28;20339;-73
2021/12/19 10:18:57;;;;;;;;;;;24.60;99.90;;;;;;5072261;28;19908;-73
2021/12/19 10:21:24;;;;;;;;;;;24.50;99.90;;;;;;5072023;28;20390;-72
2021/12/19 10:23:51;;;;;;;;;;;24.50;99.90;;;;;;5071534;28;20347;-74
2021/12/19 10:26:17;;;;;;;;;;;24.60;99.90;;;;;;5071731;28;19909;-73
2021/12/19 10:28:57;;;;;;;;;;;24.60;99.90;;;;;;5071494;28;20001;-73
2021/12/19 10:31:25;;;;;;;;;;;24.60;99.90;;;;;;5074273;28;19915;-73
2021/12/19 10:33:52;;;;;;;;;;;24.50;99.90;;;;;;5075342;28;19912;-72
2021/12/19 10:36:19;;;;;;;;;;;24.50;99.90;;;;;;5075690;28;19908;-73
2021/12/19 10:38:49;;;;;;;;;;;24.60;99.90;;;;;;5075604;28;19916;-73
2021/12/19 10:41:32;;;;;;;;;;;24.60;99.90;;;;;;5075729;28;19923;-74
2021/12/19 10:44:04;;;;;;;;;;;24.60;99.90;;;;;;5075439;28;19913;-73
2021/12/19 10:46:32;;;;;;;;;;;24.50;99.90;;;;;;5070128;28;20286;-73
2021/12/19 10:48:59;;;;;;;;;;;24.50;99.90;;;;;;5055146;28;19913;-73
2021/12/19 10:51:27;;;;;;;;;;;24.40;99.90;;;;;;5055399;28;19915;-73
2021/12/19 10:53:56;;;;;;;;;;;24.40;99.90;;;;;;5054918;28;19912;-73
2021/12/19 10:56:29;;;;;;;;;;;24.40;99.90;;;;;;5055287;28;20279;-74
2021/12/19 10:58:57;;;;;;;;;;;24.40;99.90;;;;;;5055045;28;19915;-73
2021/12/19 11:01:29;;;;;;;;;;;24.40;99.90;;;;;;5055283;28;19995;-73
2021/12/19 11:04:05;;;;;;;;;;;24.50;99.90;;;;;;5054344;28;20356;-72
2021/12/19 11:06:33;;;;;;;;;;;24.50;99.90;;;;;;5055174;28;19912;-74
2021/12/19 11:09:04;;;;;;;;;;;24.50;99.90;;;;;;5054713;28;19921;-73
2021/12/19 11:11:39;;;;;;;;;;;24.50;99.90;;;;;;5054935;28;19934;-74
2021/12/19 11:14:07;;;;;;;;;;;24.50;99.90;;;;;;5054968;28;19932;-73
2021/12/19 11:16:33;;;;;;;;;;;24.50;99.90;;;;;;5055116;28;19916;-73
2021/12/19 11:19:00;;;;;;;;;;;24.40;99.90;;;;;;5054363;28;20003;-73
2021/12/19 11:21:32;;;;;;;;;;;24.30;99.90;;;;;;5054679;28;20528;-74
2021/12/19 11:23:59;;;;;;;;;;;24.30;99.90;;;;;;5054780;28;20199;-74
2021/12/19 11:26:27;;;;;;;;;;;24.20;99.90;;;;;;5054689;28;20342;-74
2021/12/19 11:28:55;;;;;;;;;;;24.20;99.90;;;;;;5054662;28;19948;-74
2021/12/19 11:31:25;;;;;;;;;;;24.30;99.90;;;;;;5054633;28;19951;-74
2021/12/19 11:34:01;;;;;;;;;;;24.30;99.90;;;;;;5053907;28;20275;-74
2021/12/19 11:36:32;;;;;;;;;;;24.20;99.90;;;;;;5054512;28;19909;-73
2021/12/19 11:39:02;;;;;;;;;;;24.10;99.90;;;;;;5054688;28;19912;-74
2021/12/19 11:41:29;;;;;;;;;;;24.10;99.90;;;;;;5054009;28;19989;-73
2021/12/19 11:43:57;;;;;;;;;;;24.20;99.90;;;;;;5053626;28;20408;-74
2021/12/19 11:46:44;;;;;;;;;;;24.20;99.90;;;;;;5053885;28;19956;-74
2021/12/19 11:49:21;;;;;;;;;;;24.20;99.90;;;;;;5054524;28;19908;-75
2021/12/19 11:51:48;;;;;;;;;;;24.20;99.90;;;;;;5054018;28;19948;-74
2021/12/19 11:54:17;;;;;;;;;;;24.30;99.90;;;;;;5054408;28;19939;-72
2021/12/19 11:57:02;;;;;;;;;;;24.30;99.90;;;;;;5053080;28;19909;-73
2021/12/19 11:59:28;;;;;;;;;;;24.30;99.90;;;;;;5054048;28;20295;-72
2021/12/19 12:02:15;;;;;;;;;;;24.40;99.90;;;;;;5053932;28;19909;-73
2021/12/19 12:04:41;;;;;;;;;;;24.30;99.90;;;;;;5053935;28;19916;-73
2021/12/19 12:07:08;;;;;;;;;;;24.20;99.90;;;;;;5053860;28;19943;-72
2021/12/19 12:09:40;;;;;;;;;;;24.10;99.90;;;;;;5053707;28;19928;-72
2021/12/19 12:12:10;;;;;;;;;;;24.00;99.90;;;;;;5053675;28;19913;-73
2021/12/19 12:14:54;;;;;;;;;;;23.90;99.90;;;;;;5053838;28;19977;-73
2021/12/19 12:17:24;;;;;;;;;;;23.80;99.90;;;;;;5053690;28;20324;-73
2021/12/19 12:19:53;;;;;;;;;;;23.90;99.90;;;;;;5053541;28;19916;-72
2021/12/19 12:22:26;;;;;;;;;;;23.90;99.90;;;;;;5053485;28;19909;-72
2021/12/19 12:25:09;;;;;;;;;;;24.00;99.90;;;;;;5053692;28;19909;-74
2021/12/19 12:27:36;;;;;;;;;;;24.00;99.90;;;;;;5053460;28;19917;-73
2021/12/19 12:30:06;;;;;;;;;;;23.90;99.90;;;;;;5053301;28;19916;-73
2021/12/19 12:32:33;;;;;;;;;;;23.90;99.90;;;;;;5053500;28;20393;-74
2021/12/19 12:34:59;;;;;;;;;;;23.90;99.90;;;;;;5053317;28;19951;-73
2021/12/19 12:37:27;;;;;;;;;;;23.80;99.90;;;;;;5053273;28;19909;-73
2021/12/19 12:40:16;;;;;;;;;;;23.80;99.90;;;;;;5053165;28;19951;-73
2021/12/19 12:43:09;;;;;;;;;;;23.80;99.90;;;;;;5053310;28;20367;-73
2021/12/19 12:45:50;;;;;;;;;;;23.80;99.90;;;;;;5053304;28;19908;-73
2021/12/19 12:48:35;;;;;;;;;;;23.90;99.90;;;;;;5053093;28;19917;-73
2021/12/19 12:51:04;;;;;;;;;;;23.80;99.90;;;;;;5053234;28;19909;-73
2021/12/19 12:53:35;;;;;;;;;;;23.80;99.90;;;;;;5052626;28;19915;-71
2021/12/19 12:56:04;;;;;;;;;;;23.70;99.90;;;;;;5053132;28;20392;-73
2021/12/19 12:58:41;;;;;;;;;;;23.70;99.90;;;;;;5052901;28;19909;-74
2021/12/19 13:01:22;;;;;;;;;;;23.50;99.90;;;;;;5052977;28;19908;-72
2021/12/19 13:03:56;;;;;;;;;;;23.40;99.90;;;;;;5052700;28;19917;-73
2021/12/19 13:06:36;;;;;;;;;;;23.40;99.90;;;;;;5052827;28;20398;-73
2021/12/19 13:09:10;;;;;;;;;;;23.30;99.90;;;;;;5052713;28;19920;-73
2021/12/19 13:11:37;;;;;;;;;;;23.30;99.90;;;;;;5052748;28;19909;-73
2021/12/19 13:14:15;;;;;;;;;;;23.40;99.90;;;;;;5052615;28;19909;-74
2021/12/19 13:16:46;;;;;;;;;;;23.50;99.90;;;;;;5052683;28;19917;-73
2021/12/19 13:19:31;;;;;;;;;;;23.50;99.90;;;;;;5052648;28;19909;-73
2021/12/19 13:21:58;;;;;;;;;;;23.60;99.90;;;;;;5052528;28;20330;-73
2021/12/19 13:24:24;;;;;;;;;;;23.50;99.90;;;;;;5052619;28;19913;-73
2021/12/19 13:27:08;;;;;;;;;;;23.40;99.90;;;;;;5052432;28;19973;-73
2021/12/19 13:29:35;;;;;;;;;;;23.40;99.90;;;;;;5052524;28;19936;-73
2021/12/19 13:32:18;;;;;;;;;;;23.50;99.90;;;;;;5052524;28;19958;-73
2021/12/19 13:34:45;;;;;;;;;;;23.50;99.90;;;;;;5052390;28;19909;-74
2021/12/19 13:37:11;;;;;;;;;;;23.40;99.90;;;;;;5052373;28;19908;-73
2021/12/19 13:39:38;;;;;;;;;;;23.40;99.90;;;;;;5052512;28;20294;-73
2021/12/19 13:42:08;;;;;;;;;;;23.30;99.90;;;;;;5052244;28;19909;-72
2021/12/19 13:44:35;;;;;;;;;;;23.30;99.90;;;;;;5052574;28;19917;-72
2021/12/19 13:47:13;;;;;;;;;;;23.30;99.90;;;;;;5052389;28;19971;-73
2021/12/19 13:49:40;;;;;;;;;;;23.30;99.90;;;;;;5052319;28;19947;-73
2021/12/19 13:52:07;;;;;;;;;;;23.30;99.90;;;;;;5051992;28;19920;-73
2021/12/19 13:54:37;;;;;;;;;;;23.30;99.90;;;;;;5052438;28;19916;-73
2021/12/19 13:57:16;;;;;;;;;;;23.30;99.90;;;;;;5052496;28;19951;-73
2021/12/19 13:59:45;;;;;;;;;;;23.40;99.90;;;;;;5052262;28;19909;-72
2021/12/19 14:02:13;;;;;;;;;;;23.40;99.90;;;;;;5052217;28;20464;-72
2021/12/19 14:04:40;;;;;;;;;;;23.40;99.90;;;;;;5052199;28;19958;-72
2021/12/19 14:07:11;;;;;;;;;;;23.40;99.90;;;;;;5055731;28;20388;-73
2021/12/19 14:09:41;;;;;;;;;;;23.40;99.90;;;;;;5056401;28;19928;-73
2021/12/19 14:12:15;;;;;;;;;;;23.30;99.90;;;;;;5056096;28;20286;-73
2021/12/19 14:14:41;;;;;;;;;;;23.40;99.90;;;;;;5056107;28;19909;-73
2021/12/19 14:17:12;;;;;;;;;;;23.30;99.90;;;;;;5056511;28;19909;-73
2021/12/19 14:19:40;;;;;;;;;;;23.30;99.90;;;;;;5056104;28;19997;-73
2021/12/19 14:22:07;;;;;;;;;;;23.30;99.90;;;;;;5055746;28;20014;-73
2021/12/19 14:24:46;;;;;;;;;;;23.40;99.90;;;;;;5056086;28;20363;-73
2021/12/19 14:27:15;;;;;;;;;;;23.40;99.90;;;;;;5055919;28;19916;-72
2021/12/19 14:29:43;;;;;;;;;;;23.40;99.90;;;;;;5055970;28;19909;-73
2021/12/19 14:32:14;;;;;;;;;;;23.40;99.90;;;;;;5055781;28;19991;-73
2021/12/19 14:34:44;;;;;;;;;;;23.50;99.90;;;;;;5055870;28;19916;-72
2021/12/19 14:37:29;;;;;;;;;;;23.40;99.90;;;;;;5055788;28;20429;-73
2021/12/19 14:40:01;;;;;;;;;;;23.50;99.90;;;;;;5055602;28;19976;-74
2021/12/19 14:42:29;;;;;;;;;;;23.50;99.90;;;;;;5055699;28;19986;-74
2021/12/19 14:44:57;;;;;;;;;;;23.50;99.90;;;;;;5055623;28;19916;-74
2021/12/19 14:47:37;;;;;;;;;;;23.50;99.90;;;;;;5055453;28;20356;-73
2021/12/19 14:50:11;;;;;;;;;;;23.50;99.90;;;;;;5055292;28;19909;-74
2021/12/19 14:52:38;;;;;;;;;;;23.50;99.90;;;;;;5055375;28;19956;-74
2021/12/19 14:55:11;;;;;;;;;;;23.50;99.90;;;;;;5055403;28;20323;-74
2021/12/19 14:57:38;;;;;;;;;;;23.50;99.90;;;;;;5054196;28;19912;-72
2021/12/19 15:00:06;;;;;;;;;;;23.50;99.90;;;;;;5055146;28;20372;-74
2021/12/19 15:02:32;;;;;;;;;;;23.50;99.90;;;;;;5055277;28;19920;-73
2021/12/19 15:04:59;;;;;;;;;;;23.60;99.90;;;;;;5055176;28;19909;-74
2021/12/19 15:07:26;;;;;;;;;;;23.60;99.90;;;;;;5054989;28;19917;-74
2021/12/19 15:09:53;;;;;;;;;;;23.70;99.90;;;;;;5054768;28;20367;-73
2021/12/19 15:12:20;;;;;;;;;;;23.50;99.90;;;;;;5055255;28;20394;-74
2021/12/19 15:14:46;;;;;;;;;;;23.50;99.90;;;;;;5055272;28;19909;-74
2021/12/19 15:17:13;;;;;;;;;;;23.40;99.90;;;;;;5054942;28;20007;-72
2021/12/19 15:19:39;;;;;;;;;;;23.30;99.90;;;;;;5054986;28;19909;-73
2021/12/19 15:22:06;;;;;;;;;;;23.20;99.90;;;;;;5054578;28;19959;-74
2021/12/19 15:24:33;;;;;;;;;;;23.20;99.90;;;;;;5054824;28;20344;-73